Pendroy, Montana
Current Conditions -  °F | °C
As of 8:56 AM on Friday 31 Oct 2014 (Local Time) from KCTB Reporting Station
Haze Haze  
Wind Chill: 32°   Ceiling: Unl
Heat Index: 32°   Visibility: 5mi
Dew Point: 30°   Wind: 0mph
Humidity: 92%   Direction: NA
Pressure: 29.81"   Gusts: NA
Location:  48.07°N, 112.3°W
Report Text: KCTB 311456Z AUTO 00000KT 5SM BR CLR 00/M01 A2981 RMK AO2 SLP117 I3000 T00001011 56013
Loading
Personal Weather Stations






























Interactive Weather Map
Tropical Storm Tracking
New forecast layout! Learn more

10-Day Weather Forecast

Advertisements
Track Severe Weather on mobile